Time;durP1;ratioP1;P1;durP2;ratioP2;P2;SDS_P1;SDS_P2;PMS_P1;PMS_P2;Temp;Humidity;BMP_temperature;BMP_pressure;BME280_temperature;BME280_humidity;BME280_pressure;Samples;Min_cycle;Max_cycle;Signal;HPM_P1;HPM_P2
2020/12/24 00:01:46;;;;;;;6.10;0.70;;;9.40;94.20;;;;;;5023238;28;20028;-78
2020/12/24 00:04:12;;;;;;;4.63;0.55;;;9.40;94.30;;;;;;5025054;28;20459;-77
2020/12/24 00:06:37;;;;;;;6.38;0.90;;;9.30;94.00;;;;;;5028089;28;20021;-77
2020/12/24 00:09:03;;;;;;;8.20;1.15;;;9.30;94.30;;;;;;5030097;28;20033;-77
2020/12/24 00:11:29;;;;;;;1.30;0.52;;;9.20;94.30;;;;;;5009162;28;20028;-77
2020/12/24 00:13:55;;;;;;;1.60;0.35;;;9.20;93.90;;;;;;5051122;28;20280;-77
2020/12/24 00:16:21;;;;;;;8.85;1.15;;;9.20;93.80;;;;;;5034458;28;20036;-77
2020/12/24 00:18:46;;;;;;;5.43;1.63;;;9.10;94.00;;;;;;5017134;28;20395;-77
2020/12/24 00:21:12;;;;;;;6.07;0.82;;;9.10;94.00;;;;;;5012348;28;20032;-77
2020/12/24 00:23:37;;;;;;;6.10;1.25;;;9.10;93.80;;;;;;5036410;28;20423;-77
2020/12/24 00:26:03;;;;;;;3.63;0.35;;;9.10;93.90;;;;;;5012381;28;20036;-76
2020/12/24 00:28:32;;;;;;;2.92;0.77;;;9.00;93.80;;;;;;5033467;28;20032;-76
2020/12/24 00:30:58;;;;;;;4.88;0.55;;;9.00;93.90;;;;;;5011701;28;20040;-78
2020/12/24 00:33:24;;;;;;;5.60;0.95;;;9.00;93.60;;;;;;5026675;28;20040;-77
2020/12/24 00:35:49;;;;;;;4.45;0.70;;;9.00;93.70;;;;;;5021730;28;20392;-78
2020/12/24 00:38:15;;;;;;;3.88;0.68;;;8.90;93.70;;;;;;5030124;28;20381;-77
2020/12/24 00:40:40;;;;;;;4.82;0.98;;;8.80;93.80;;;;;;5013647;28;20480;-77
2020/12/24 00:43:06;;;;;;;1.17;0.60;;;8.80;93.60;;;;;;5016483;28;20024;-77
2020/12/24 00:45:31;;;;;;;4.50;1.13;;;8.90;93.20;;;;;;5012254;28;20024;-77
2020/12/24 00:47:57;;;;;;;1.50;0.40;;;8.80;93.10;;;;;;5008588;28;20032;-77
2020/12/24 00:50:22;;;;;;;2.00;0.57;;;8.80;92.80;;;;;;5012447;28;20041;-77
2020/12/24 00:52:48;;;;;;;8.93;0.80;;;8.90;92.90;;;;;;5009508;28;20024;-77
2020/12/24 00:55:13;;;;;;;3.35;0.73;;;8.80;92.90;;;;;;5007297;28;20066;-77
2020/12/24 00:57:39;;;;;;;10.88;3.33;;;8.80;92.80;;;;;;5024002;28;20567;-77
2020/12/24 01:00:05;;;;;;;3.78;1.42;;;8.70;93.10;;;;;;5048174;28;20056;-77
2020/12/24 01:02:31;;;;;;;4.15;0.55;;;8.70;92.90;;;;;;5016427;28;20108;-77
2020/12/24 01:04:56;;;;;;;5.13;0.57;;;8.80;93.10;;;;;;5038249;28;20148;-77
2020/12/24 01:07:22;;;;;;;2.38;0.70;;;8.70;93.30;;;;;;5012279;28;20104;-77
2020/12/24 01:09:47;;;;;;;1.05;0.20;;;8.70;93.00;;;;;;5036968;28;20033;-77
2020/12/24 01:12:13;;;;;;;1.65;0.55;;;8.70;92.90;;;;;;5036790;28;20116;-76
2020/12/24 01:14:38;;;;;;;9.93;0.98;;;8.70;93.00;;;;;;5034744;28;20033;-77
2020/12/24 01:17:04;;;;;;;10.02;1.15;;;8.60;93.30;;;;;;5024748;28;20025;-76
2020/12/24 01:19:29;;;;;;;10.05;1.30;;;8.60;93.10;;;;;;5015330;28;20288;-78
2020/12/24 01:21:55;;;;;;;1.98;0.22;;;8.50;92.90;;;;;;5037327;28;20124;-77
2020/12/24 01:24:20;;;;;;;5.78;0.70;;;8.50;93.00;;;;;;5025987;28;20527;-77
2020/12/24 01:26:47;;;;;;;4.60;0.80;;;8.60;93.00;;;;;;5007521;28;20033;-77
2020/12/24 01:29:12;;;;;;;11.40;1.48;;;8.50;92.90;;;;;;5012253;28;20617;-77
2020/12/24 01:31:43;;;;;;;3.00;0.50;;;8.50;93.00;;;;;;5042856;28;20107;-77
2020/12/24 01:34:09;;;;;;;9.57;2.28;;;8.50;92.90;;;;;;5021457;28;20200;-77
2020/12/24 01:36:34;;;;;;;2.63;0.55;;;8.50;92.90;;;;;;5027128;28;20386;-77
2020/12/24 01:39:00;;;;;;;2.08;0.95;;;8.50;92.80;;;;;;5026693;28;20449;-78
2020/12/24 01:41:25;;;;;;;3.97;0.70;;;8.50;93.00;;;;;;5016485;28;20139;-77
2020/12/24 01:43:51;;;;;;;7.47;0.55;;;8.40;93.10;;;;;;5010811;28;20083;-78
2020/12/24 01:46:16;;;;;;;11.65;1.17;;;8.40;92.90;;;;;;5014608;28;20037;-78
2020/12/24 01:48:42;;;;;;;3.10;1.05;;;8.40;92.90;;;;;;5042279;28;20446;-78
2020/12/24 01:51:11;;;;;;;13.20;1.00;;;8.40;92.90;;;;;;5027894;28;20032;-77
2020/12/24 01:53:36;;;;;;;5.28;1.17;;;8.40;92.80;;;;;;5009479;28;20033;-78
2020/12/24 01:56:02;;;;;;;6.30;0.80;;;8.40;92.90;;;;;;5026613;28;20036;-77
2020/12/24 01:58:27;;;;;;;5.60;0.77;;;8.40;92.90;;;;;;5016721;28;20044;-77
2020/12/24 02:00:53;;;;;;;7.85;0.73;;;8.30;93.00;;;;;;5029564;28;20455;-76
2020/12/24 02:03:18;;;;;;;4.28;0.70;;;8.30;92.90;;;;;;5013977;28;20548;-78
2020/12/24 02:05:44;;;;;;;7.93;1.77;;;8.40;92.80;;;;;;5038898;28;20035;-77
2020/12/24 02:08:10;;;;;;;4.78;0.43;;;8.40;92.60;;;;;;5046151;28;20094;-77
2020/12/24 02:10:36;;;;;;;1.45;0.63;;;8.40;92.80;;;;;;5043994;28;20037;-77
2020/12/24 02:13:02;;;;;;;4.22;0.93;;;8.40;92.50;;;;;;5025033;28;20145;-77
2020/12/24 02:15:27;;;;;;;4.68;1.10;;;8.40;92.50;;;;;;5031810;28;20041;-76
2020/12/24 02:17:53;;;;;;;8.10;0.80;;;8.30;92.30;;;;;;5015458;28;20423;-77
2020/12/24 02:20:18;;;;;;;2.15;0.70;;;8.30;92.50;;;;;;5038823;28;20127;-77
2020/12/24 02:22:44;;;;;;;8.18;1.50;;;8.30;92.30;;;;;;5040117;28;20453;-77
2020/12/24 02:25:09;;;;;;;12.27;1.73;;;8.30;92.40;;;;;;5029187;28;20033;-77
2020/12/24 02:27:35;;;;;;;3.72;0.50;;;8.30;92.50;;;;;;5015165;28;20039;-76
2020/12/24 02:30:02;;;;;;;5.07;0.63;;;8.30;92.30;;;;;;5042191;28;20408;-76
2020/12/24 02:32:30;;;;;;;11.32;2.88;;;8.30;92.50;;;;;;5028132;28;20155;-77
2020/12/24 02:34:55;;;;;;;0.85;0.30;;;8.40;92.20;;;;;;5030393;28;20396;-77
2020/12/24 02:37:22;;;;;;;2.85;0.73;;;8.40;92.20;;;;;;5036265;28;20039;-77
2020/12/24 02:39:51;;;;;;;6.88;1.40;;;8.40;92.30;;;;;;5042285;28;20036;-77
2020/12/24 02:42:17;;;;;;;8.13;1.65;;;8.40;92.30;;;;;;5032457;28;20552;-77
2020/12/24 02:44:43;;;;;;;5.97;1.08;;;8.40;91.90;;;;;;5023013;28;20047;-77
2020/12/24 02:47:09;;;;;;;9.90;1.35;;;8.40;91.90;;;;;;5047696;28;20028;-76
2020/12/24 02:49:34;;;;;;;6.70;1.00;;;8.40;92.00;;;;;;5015774;28;20437;-76
2020/12/24 02:52:00;;;;;;;1.73;0.68;;;8.40;92.00;;;;;;5034146;28;20115;-77
2020/12/24 02:54:25;;;;;;;8.38;0.80;;;8.40;92.00;;;;;;5030864;28;20040;-77
2020/12/24 02:56:51;;;;;;;4.78;0.88;;;8.40;92.10;;;;;;5030491;28;20025;-76
2020/12/24 02:59:17;;;;;;;5.82;0.70;;;8.30;92.30;;;;;;5024306;28;20515;-76
2020/12/24 03:01:43;;;;;;;2.63;0.77;;;8.40;92.00;;;;;;5040897;28;20369;-76
2020/12/24 03:04:08;;;;;;;3.70;0.85;;;8.40;91.80;;;;;;5044870;28;20024;-76
2020/12/24 03:06:34;;;;;;;8.45;0.82;;;8.40;91.80;;;;;;5043246;28;20032;-75
2020/12/24 03:08:59;;;;;;;10.00;0.77;;;8.40;92.00;;;;;;5011641;28;20017;-77
2020/12/24 03:11:25;;;;;;;6.03;0.80;;;8.40;91.90;;;;;;5012585;28;20047;-77
2020/12/24 03:13:50;;;;;;;1.35;0.30;;;8.40;92.00;;;;;;5007972;28;20028;-76
2020/12/24 03:16:16;;;;;;;3.80;0.65;;;8.40;91.70;;;;;;5030239;28;20039;-75
2020/12/24 03:18:42;;;;;;;2.88;0.93;;;8.40;91.80;;;;;;5036717;28;20057;-75
2020/12/24 03:21:07;;;;;;;9.68;1.90;;;8.40;91.90;;;;;;5047052;28;20090;-76
2020/12/24 03:23:33;;;;;;;1.63;0.55;;;8.40;92.10;;;;;;5031907;28;20028;-76
2020/12/24 03:25:58;;;;;;;2.83;0.77;;;8.40;92.10;;;;;;5035358;28;20036;-76
2020/12/24 03:28:24;;;;;;;3.45;0.82;;;8.40;92.40;;;;;;5018774;28;20029;-77
2020/12/24 03:30:49;;;;;;;1.63;0.30;;;8.50;92.70;;;;;;5020352;28;20028;-77
2020/12/24 03:33:15;;;;;;;0.75;0.40;;;8.40;92.60;;;;;;5054002;28;20444;-77
2020/12/24 03:35:40;;;;;;;2.78;0.80;;;8.50;92.80;;;;;;5040837;28;20369;-80
2020/12/24 03:38:06;;;;;;;9.05;1.20;;;8.40;92.90;;;;;;5022688;28;20063;-81
2020/12/24 03:40:31;;;;;;;2.63;0.40;;;8.30;92.90;;;;;;5046355;28;20044;-80
2020/12/24 03:42:57;;;;;;;6.53;1.02;;;8.30;92.80;;;;;;5030931;28;20024;-80
2020/12/24 03:45:22;;;;;;;3.42;0.68;;;8.30;92.90;;;;;;5031605;28;20048;-80
2020/12/24 03:47:48;;;;;;;5.30;0.98;;;8.20;93.00;;;;;;5025198;28;20035;-81
2020/12/24 03:50:14;;;;;;;7.72;0.77;;;8.30;92.90;;;;;;5041439;28;20039;-80
2020/12/24 03:52:39;;;;;;;4.53;0.88;;;8.20;92.80;;;;;;5046085;28;20051;-80
2020/12/24 03:55:05;;;;;;;8.07;1.33;;;8.20;93.10;;;;;;5021425;28;20035;-77
2020/12/24 03:57:30;;;;;;;5.97;1.95;;;8.20;93.20;;;;;;5024835;28;20036;-78
2020/12/24 03:59:56;;;;;;;3.90;0.70;;;8.20;93.30;;;;;;5024886;28;20071;-79
2020/12/24 04:02:21;;;;;;;2.55;0.70;;;8.20;93.30;;;;;;5020740;28;20532;-78
2020/12/24 04:04:47;;;;;;;2.83;0.40;;;8.10;93.40;;;;;;5007065;28;20087;-79
2020/12/24 04:07:12;;;;;;;1.58;0.60;;;8.10;93.60;;;;;;5016067;28;20048;-79
2020/12/24 04:09:38;;;;;;;3.92;1.52;;;8.10;93.60;;;;;;5008364;28;20029;-78
2020/12/24 04:12:03;;;;;;;7.32;0.95;;;8.10;93.50;;;;;;5018020;28;20036;-78
2020/12/24 04:14:30;;;;;;;9.10;1.83;;;8.10;93.30;;;;;;5029703;28;20028;-78
2020/12/24 04:16:55;;;;;;;8.32;1.00;;;8.00;93.50;;;;;;5028187;28;20050;-78
2020/12/24 04:19:21;;;;;;;5.60;1.88;;;8.00;93.50;;;;;;5029956;28;20044;-78
2020/12/24 04:21:47;;;;;;;4.55;1.20;;;8.10;93.50;;;;;;5021401;28;20040;-79
2020/12/24 04:24:12;;;;;;;4.72;0.32;;;8.00;93.30;;;;;;5024797;28;20029;-79
2020/12/24 04:26:38;;;;;;;0.50;0.30;;;8.00;93.50;;;;;;5019173;28;20352;-77
2020/12/24 04:29:03;;;;;;;4.22;0.50;;;8.00;93.50;;;;;;5024150;28;20380;-78
2020/12/24 04:31:29;;;;;;;5.13;0.90;;;8.00;93.30;;;;;;5007860;28;20085;-78
2020/12/24 04:33:54;;;;;;;3.50;1.27;;;7.90;93.60;;;;;;5021437;28;20418;-77
2020/12/24 04:36:20;;;;;;;13.48;1.30;;;8.00;93.50;;;;;;5009542;28;20042;-78
2020/12/24 04:38:45;;;;;;;7.90;0.93;;;8.00;93.40;;;;;;5015929;28;20296;-78
2020/12/24 04:41:11;;;;;;;4.03;0.60;;;8.00;93.30;;;;;;5031498;28;20036;-78
2020/12/24 04:43:38;;;;;;;3.70;0.75;;;8.00;93.40;;;;;;5025419;28;20086;-77
2020/12/24 04:46:06;;;;;;;2.40;0.50;;;8.00;93.50;;;;;;5023213;28;20388;-77
2020/12/24 04:48:31;;;;;;;2.13;0.85;;;8.00;93.40;;;;;;5026494;28;20360;-77
2020/12/24 04:50:57;;;;;;;3.58;0.70;;;8.00;93.50;;;;;;5028493;28;20086;-77
2020/12/24 04:53:22;;;;;;;14.80;1.10;;;8.00;93.40;;;;;;5013506;28;20083;-77
2020/12/24 04:55:48;;;;;;;4.82;0.60;;;8.00;93.50;;;;;;5041168;28;20484;-77
2020/12/24 04:58:13;;;;;;;4.40;0.68;;;8.00;93.30;;;;;;5030697;28;20461;-78
2020/12/24 05:00:39;;;;;;;7.55;1.30;;;8.00;93.40;;;;;;5025937;28;20040;-78
2020/12/24 05:03:06;;;;;;;8.18;0.82;;;8.00;93.30;;;;;;5036678;28;20028;-78
2020/12/24 05:05:32;;;;;;;3.95;0.80;;;8.00;93.40;;;;;;5044814;28;20036;-77
2020/12/24 05:08:02;;;;;;;4.28;0.50;;;8.00;93.40;;;;;;5040366;28;20365;-77
2020/12/24 05:10:28;;;;;;;5.20;0.93;;;8.00;93.30;;;;;;5031238;28;20032;-77
2020/12/24 05:12:54;;;;;;;9.60;0.95;;;8.00;93.40;;;;;;5024317;28;20044;-77
2020/12/24 05:15:29;;;;;;;5.20;0.57;;;8.00;93.50;;;;;;5011588;28;20122;-77
2020/12/24 05:18:14;;;;;;;7.28;0.95;;;8.00;93.50;;;;;;5037353;28;20376;-76
2020/12/24 05:20:40;;;;;;;5.45;1.10;;;7.90;93.40;;;;;;5032697;28;20510;-77
2020/12/24 05:23:20;;;;;;;7.68;0.93;;;7.90;93.50;;;;;;5020942;28;20361;-76
2020/12/24 05:25:47;;;;;;;5.03;0.90;;;7.90;93.50;;;;;;5030215;28;20039;-76
2020/12/24 05:28:22;;;;;;;8.93;1.70;;;8.00;93.40;;;;;;5010911;28;20037;-76
2020/12/24 05:30:48;;;;;;;3.08;0.75;;;8.00;93.50;;;;;;5030582;28;20056;-76
2020/12/24 05:33:32;;;;;;;5.80;0.80;;;7.90;93.50;;;;;;5027532;28;20025;-76
2020/12/24 05:36:16;;;;;;;11.85;1.83;;;7.90;93.50;;;;;;5034426;28;20028;-76
2020/12/24 05:38:42;;;;;;;1.10;0.30;;;8.00;93.70;;;;;;5030434;28;20439;-77
2020/12/24 05:41:30;;;;;;;4.25;0.47;;;7.90;93.70;;;;;;5038385;28;20047;-77
2020/12/24 05:43:56;;;;;;;5.28;1.50;;;7.90;93.70;;;;;;5044907;28;20036;-77
2020/12/24 05:46:23;;;;;;;4.72;0.40;;;7.90;93.70;;;;;;5047613;28;20484;-76
2020/12/24 05:48:48;;;;;;;6.80;0.85;;;7.90;93.90;;;;;;5030516;28;20119;-76
2020/12/24 05:51:16;;;;;;;8.68;0.60;;;7.90;93.70;;;;;;5027795;28;20033;-76
2020/12/24 05:53:42;;;;;;;1.88;0.68;;;7.90;93.80;;;;;;5016444;28;20054;-76
2020/12/24 05:56:07;;;;;;;3.97;0.70;;;7.90;93.80;;;;;;5010084;28;20231;-77
2020/12/24 05:58:33;;;;;;;2.15;0.95;;;7.90;93.90;;;;;;5037022;28;20087;-76
2020/12/24 06:00:58;;;;;;;2.97;0.55;;;7.90;94.00;;;;;;5011591;28;20441;-75
2020/12/24 06:03:24;;;;;;;2.03;0.52;;;7.90;93.90;;;;;;5013743;28;20499;-77
2020/12/24 06:05:59;;;;;;;3.45;1.00;;;7.90;93.90;;;;;;5041656;28;20222;-76
2020/12/24 06:08:28;;;;;;;5.53;1.10;;;7.90;93.90;;;;;;5044360;28;20056;-76
2020/12/24 06:11:07;;;;;;;8.82;1.00;;;7.90;93.90;;;;;;5024841;28;20060;-76
2020/12/24 06:13:43;;;;;;;8.98;1.35;;;7.90;94.00;;;;;;5021463;28;20032;-76
2020/12/24 06:16:10;;;;;;;2.30;0.45;;;7.80;94.20;;;;;;5016362;28;20115;-76
2020/12/24 06:18:40;;;;;;;2.95;0.20;;;7.80;94.20;;;;;;5031914;28;20057;-77
2020/12/24 06:21:13;;;;;;;6.05;0.77;;;7.80;94.20;;;;;;5010240;28;20669;-76
2020/12/24 06:23:38;;;;;;;7.25;1.13;;;7.90;94.20;;;;;;5043247;28;20480;-77
2020/12/24 06:26:05;;;;;;;7.45;1.05;;;7.80;94.20;;;;;;5015430;28;20037;-76
2020/12/24 06:28:32;;;;;;;6.88;1.08;;;7.80;94.20;;;;;;5030218;28;20032;-77
2020/12/24 06:30:58;;;;;;;8.18;1.48;;;7.80;94.20;;;;;;5045321;28;20039;-77
2020/12/24 06:33:27;;;;;;;14.82;1.15;;;7.80;94.30;;;;;;5014867;28;20037;-78
2020/12/24 06:35:53;;;;;;;5.18;1.17;;;7.80;94.40;;;;;;5026823;28;20040;-77
2020/12/24 06:38:19;;;;;;;9.57;1.10;;;7.80;94.40;;;;;;5038869;28;20166;-78
2020/12/24 06:40:44;;;;;;;4.53;1.15;;;7.80;94.60;;;;;;4686881;28;10000483;-79
2020/12/24 06:43:10;;;;;;;7.72;0.85;;;7.80;94.60;;;;;;4338234;28;10001294;-79
2020/12/24 06:45:39;;;;;;;3.10;0.98;;;7.70;94.70;;;;;;5014210;28;20029;-79
2020/12/24 06:48:14;;;;;;;4.78;1.13;;;7.70;94.60;;;;;;5017655;28;20194;-79
2020/12/24 06:50:40;;;;;;;5.90;0.95;;;7.70;94.70;;;;;;5066421;28;20044;-79
2020/12/24 06:53:44;;;;;;;5.85;1.10;;;7.70;94.70;;;;;;5018555;28;20055;-78
2020/12/24 06:56:16;;;;;;;6.22;0.80;;;7.60;94.70;;;;;;4984595;28;20149;-78
2020/12/24 06:58:42;;;;;;;3.60;0.70;;;7.60;94.80;;;;;;4984270;28;20033;-79
2020/12/24 07:01:19;;;;;;;1.55;0.68;;;7.60;94.70;;;;;;5009618;28;20124;-79
2020/12/24 07:03:45;;;;;;;4.18;0.60;;;7.60;94.90;;;;;;5033348;28;20029;-79
2020/12/24 07:06:10;;;;;;;7.85;0.93;;;7.60;94.80;;;;;;5044651;28;20444;-78
2020/12/24 07:08:36;;;;;;;3.63;0.65;;;7.60;94.90;;;;;;5036053;28;20177;-76
2020/12/24 07:11:02;;;;;;;5.47;1.13;;;7.60;94.90;;;;;;5056595;28;20107;-78
2020/12/24 07:13:38;;;;;;;6.00;0.93;;;7.60;94.80;;;;;;5026225;28;20085;-77
2020/12/24 07:16:08;;;;;;;14.10;2.03;;;7.50;94.80;;;;;;5026289;28;20087;-77
2020/12/24 07:18:39;;;;;;;0.77;0.45;;;7.60;94.90;;;;;;5028902;28;20439;-78
2020/12/24 07:21:11;;;;;;;6.68;0.60;;;7.60;94.90;;;;;;5028872;28;20492;-77
2020/12/24 07:23:38;;;;;;;1.20;0.30;;;7.60;94.90;;;;;;5014007;28;20039;-77
2020/12/24 07:26:05;;;;;;;3.92;1.30;;;7.60;95.00;;;;;;5020284;28;20064;-78
2020/12/24 07:28:32;;;;;;;4.25;1.17;;;7.60;94.80;;;;;;5027319;28;20483;-79
2020/12/24 07:30:58;;;;;;;5.35;2.35;;;7.60;94.80;;;;;;5027777;28;20040;-78
2020/12/24 07:33:24;;;;;;;4.03;1.00;;;7.60;94.90;;;;;;5016229;28;20058;-77
2020/12/24 07:35:50;;;;;;;1.00;0.63;;;7.60;95.00;;;;;;5041691;28;20024;-78
2020/12/24 07:38:25;;;;;;;3.72;0.80;;;7.60;95.00;;;;;;5039122;28;20475;-78
2020/12/24 07:40:51;;;;;;;1.20;0.82;;;7.60;95.10;;;;;;5021894;28;20480;-77
2020/12/24 07:43:16;;;;;;;4.75;1.02;;;7.60;95.00;;;;;;5010854;28;20043;-78
2020/12/24 07:45:43;;;;;;;9.98;1.45;;;7.60;95.00;;;;;;5041177;28;20514;-77
2020/12/24 07:48:18;;;;;;;7.05;2.47;;;7.40;95.00;;;;;;5019888;28;20043;-78
2020/12/24 07:50:45;;;;;;;6.25;1.05;;;7.00;95.90;;;;;;5023873;28;20047;-78
2020/12/24 07:53:11;;;;;;;0.70;0.57;;;6.90;95.90;;;;;;5031583;28;20125;-77
2020/12/24 07:55:36;;;;;;;1.77;0.60;;;6.80;95.80;;;;;;5026260;28;20032;-78
2020/12/24 07:58:06;;;;;;;0.70;0.70;;;6.50;95.80;;;;;;5021957;28;20051;-78
2020/12/24 08:00:47;;;;;;;1.55;1.30;;;6.40;95.70;;;;;;5030575;28;20032;-77
2020/12/24 08:03:15;;;;;;;0.80;0.80;;;6.30;95.70;;;;;;5032538;28;20039;-78
2020/12/24 08:05:41;;;;;;;1.35;0.90;;;6.20;95.60;;;;;;5047334;28;20031;-77
2020/12/24 08:08:07;;;;;;;1.48;1.17;;;6.20;95.70;;;;;;5021926;28;20429;-78
2020/12/24 08:10:42;;;;;;;1.40;1.20;;;6.00;95.70;;;;;;5017133;28;20115;-77
2020/12/24 08:13:08;;;;;;;1.15;1.02;;;6.00;95.60;;;;;;5037903;28;20415;-78
2020/12/24 08:15:39;;;;;;;1.48;1.00;;;5.90;95.60;;;;;;5022688;28;20035;-77
2020/12/24 08:18:05;;;;;;;1.20;1.10;;;5.70;95.60;;;;;;5035966;28;20037;-77
2020/12/24 08:20:56;;;;;;;1.20;1.10;;;5.70;95.80;;;;;;5020019;28;20131;-77
2020/12/24 08:23:28;;;;;;;1.83;1.40;;;5.50;95.80;;;;;;5031447;28;20059;-77
2020/12/24 08:25:55;;;;;;;1.40;1.30;;;5.50;95.90;;;;;;5025785;28;20032;-77
2020/12/24 08:28:22;;;;;;;1.73;1.00;;;5.40;95.70;;;;;;5013448;28;20083;-77
2020/12/24 08:30:48;;;;;;;4.57;1.38;;;5.30;95.80;;;;;;3981351;28;10000357;-78
2020/12/24 08:33:14;;;;;;;2.72;1.20;;;5.40;95.70;;;;;;5031133;28;20033;-77
2020/12/24 08:35:39;;;;;;;1.60;1.08;;;5.40;95.60;;;;;;5043269;28;20643;-77
2020/12/24 08:38:17;;;;;;;1.58;1.38;;;5.30;95.70;;;;;;5013076;28;20036;-77
2020/12/24 08:40:43;;;;;;;1.42;1.25;;;5.30;95.70;;;;;;5040849;28;20036;-77
2020/12/24 08:43:09;;;;;;;1.15;0.98;;;5.20;95.80;;;;;;5036576;28;20043;-78
2020/12/24 08:45:45;;;;;;;1.38;0.80;;;5.20;95.60;;;;;;5022751;28;20390;-79
2020/12/24 08:48:26;;;;;;;;;;;5.10;95.60;;;;;;5039076;28;20041;-77
2020/12/24 08:50:51;;;;;;;1.57;0.90;;;5.20;95.70;;;;;;4686573;28;10000822;-77
2020/12/24 08:53:24;;;;;;;1.60;1.13;;;5.10;95.60;;;;;;4699903;28;10000406;-78
2020/12/24 08:55:49;;;;;;;1.27;1.15;;;5.10;95.70;;;;;;5009183;28;20044;-78
2020/12/24 08:58:15;;;;;;;3.65;1.10;;;5.10;95.70;;;;;;5016940;28;20025;-78
2020/12/24 09:00:48;;;;;;;1.98;1.33;;;5.10;95.70;;;;;;5027361;28;20028;-77
2020/12/24 09:03:26;;;;;;;1.20;1.02;;;5.20;95.70;;;;;;5010172;28;20404;-78
2020/12/24 09:05:52;;;;;;;2.65;1.20;;;5.20;95.60;;;;;;5008538;28;20029;-78
2020/12/24 09:08:24;;;;;;;2.67;1.08;;;5.20;95.60;;;;;;5022366;28;20539;-78
2020/12/24 09:10:50;;;;;;;1.85;1.40;;;5.20;95.60;;;;;;5038916;28;20666;-78
2020/12/24 09:13:17;;;;;;;1.77;1.55;;;5.20;95.60;;;;;;5029204;28;20120;-78
2020/12/24 09:15:42;;;;;;;1.52;1.42;;;5.20;95.50;;;;;;5042163;28;20025;-78
2020/12/24 09:18:08;;;;;;;2.15;1.30;;;5.20;95.50;;;;;;5023072;28;20040;-79
2020/12/24 09:20:37;;;;;;;3.47;1.10;;;5.10;95.60;;;;;;5022788;28;20043;-78
2020/12/24 09:23:10;;;;;;;2.28;1.20;;;5.10;95.70;;;;;;5012947;28;20035;-78
2020/12/24 09:25:37;;;;;;;1.00;0.80;;;5.10;95.60;;;;;;5014515;28;20411;-77
2020/12/24 09:28:22;;;;;;;2.35;1.27;;;5.20;95.60;;;;;;5024182;28;20039;-78
2020/12/24 09:30:49;;;;;;;1.48;0.82;;;5.20;95.60;;;;;;5047366;28;20396;-78
2020/12/24 09:33:15;;;;;;;2.30;1.50;;;5.10;95.70;;;;;;5045665;28;20037;-78
2020/12/24 09:35:40;;;;;;;0.95;0.85;;;5.10;95.70;;;;;;5027362;28;20383;-78
2020/12/24 09:38:06;;;;;;;1.85;1.10;;;5.10;95.80;;;;;;5022534;28;20408;-78
2020/12/24 09:40:31;;;;;;;1.00;0.80;;;5.10;95.80;;;;;;5019551;28;20494;-78
2020/12/24 09:42:57;;;;;;;1.25;0.93;;;5.20;95.90;;;;;;5029553;28;20041;-78
2020/12/24 09:45:23;;;;;;;3.22;1.40;;;5.10;95.90;;;;;;5028024;28;20040;-77
2020/12/24 09:47:52;;;;;;;5.65;1.02;;;5.20;95.90;;;;;;5017402;28;20024;-77
2020/12/24 09:50:18;;;;;;;2.15;1.23;;;5.20;95.90;;;;;;5080897;28;20110;-78
2020/12/24 09:52:43;;;;;;;1.95;1.40;;;5.20;95.90;;;;;;5036971;28;20480;-78
2020/12/24 09:55:09;;;;;;;1.60;1.17;;;5.30;96.00;;;;;;5059184;28;20110;-78
2020/12/24 09:57:34;;;;;;;3.03;1.75;;;5.30;96.00;;;;;;5032693;28;20073;-78
2020/12/24 10:00:00;;;;;;;3.22;1.60;;;5.30;96.00;;;;;;5015464;28;20032;-78
2020/12/24 10:02:26;;;;;;;2.53;1.35;;;5.30;96.10;;;;;;5037543;28;20052;-77
2020/12/24 10:04:53;;;;;;;2.65;1.70;;;5.30;96.20;;;;;;5025618;28;20479;-79
2020/12/24 10:07:22;;;;;;;3.75;1.20;;;5.40;96.30;;;;;;5031429;28;20384;-78
2020/12/24 10:09:50;;;;;;;1.23;1.13;;;5.40;96.30;;;;;;5017976;28;20066;-78
2020/12/24 10:12:26;;;;;;;2.00;1.50;;;5.30;96.20;;;;;;5041336;28;20387;-77
2020/12/24 10:14:53;;;;;;;2.92;1.38;;;5.30;96.30;;;;;;5012917;28;20035;-77
2020/12/24 10:17:19;;;;;;;3.53;1.88;;;5.40;96.30;;;;;;5027349;28;20086;-78
2020/12/24 10:19:44;;;;;;;5.63;2.33;;;5.40;96.30;;;;;;5012753;28;20044;-77
2020/12/24 10:22:10;;;;;;;2.67;2.22;;;5.40;96.30;;;;;;5011244;28;20037;-79
2020/12/24 10:24:38;;;;;;;2.30;1.70;;;5.40;96.40;;;;;;5039086;28;20035;-78
2020/12/24 10:27:03;;;;;;;1.77;1.50;;;5.40;96.40;;;;;;5044330;28;20554;-78
2020/12/24 10:29:29;;;;;;;3.80;1.20;;;5.40;96.40;;;;;;5040029;28;20111;-78
2020/12/24 10:31:55;;;;;;;1.83;1.20;;;5.40;96.40;;;;;;5047840;28;20116;-78
2020/12/24 10:34:20;;;;;;;1.80;1.08;;;5.40;96.40;;;;;;5030805;28;20025;-78
2020/12/24 10:36:46;;;;;;;1.77;1.60;;;5.50;96.40;;;;;;5024712;28;20032;-78
2020/12/24 10:39:12;;;;;;;2.25;1.88;;;5.50;96.30;;;;;;5014568;28;20127;-78
2020/12/24 10:41:38;;;;;;;2.38;1.70;;;5.50;96.40;;;;;;5025508;28;20165;-77
2020/12/24 10:44:04;;;;;;;2.90;1.85;;;5.40;96.40;;;;;;5023502;28;20039;-78
2020/12/24 10:46:30;;;;;;;3.15;2.45;;;5.50;96.40;;;;;;5030391;28;20020;-78
2020/12/24 10:48:55;;;;;;;3.58;2.28;;;5.40;96.40;;;;;;5028340;28;20035;-78
2020/12/24 10:51:22;;;;;;;3.90;2.38;;;5.50;96.50;;;;;;5050558;28;20396;-78
2020/12/24 10:53:48;;;;;;;3.58;3.15;;;5.40;96.40;;;;;;5052392;28;20380;-77
2020/12/24 10:56:13;;;;;;;3.60;2.45;;;5.50;96.40;;;;;;5029579;28;20073;-78
2020/12/24 10:58:41;;;;;;;5.03;4.50;;;5.50;96.50;;;;;;5034939;28;20036;-78
2020/12/24 11:01:10;;;;;;;5.28;3.88;;;5.40;96.50;;;;;;5017378;28;20033;-77
2020/12/24 11:03:37;;;;;;;7.07;5.32;;;5.40;96.50;;;;;;5033724;28;20115;-78
2020/12/24 11:06:06;;;;;;;6.70;5.68;;;5.60;96.90;;;;;;5029081;28;20721;-77
2020/12/24 11:08:31;;;;;;;8.20;6.53;;;5.50;96.50;;;;;;5036628;28;20028;-78
2020/12/24 11:10:57;;;;;;;8.13;6.55;;;5.50;96.60;;;;;;5053545;28;20081;-77
2020/12/24 11:13:22;;;;;;;8.50;6.82;;;5.40;96.60;;;;;;5035125;28;20034;-78
2020/12/24 11:15:48;;;;;;;10.82;8.45;;;5.40;96.60;;;;;;5037438;28;20024;-77
2020/12/24 11:18:14;;;;;;;11.05;7.82;;;5.40;96.60;;;;;;5033855;28;20111;-77
2020/12/24 11:20:39;;;;;;;8.25;6.47;;;5.40;96.70;;;;;;5021623;28;20059;-77
2020/12/24 11:23:05;;;;;;;8.35;5.40;;;5.40;96.60;;;;;;5027565;28;20056;-77
2020/12/24 11:25:30;;;;;;;5.80;4.38;;;5.40;96.60;;;;;;5057051;28;20431;-77
2020/12/24 11:27:56;;;;;;;5.80;4.13;;;5.40;96.60;;;;;;5044530;28;20487;-75
2020/12/24 11:30:21;;;;;;;7.65;5.40;;;5.40;96.40;;;;;;5027686;28;20108;-78
2020/12/24 11:32:47;;;;;;;7.00;5.00;;;5.30;96.40;;;;;;5024004;28;20103;-78
2020/12/24 11:35:12;;;;;;;7.15;5.70;;;5.30;96.50;;;;;;5042167;28;20402;-79
2020/12/24 11:37:38;;;;;;;8.40;6.35;;;5.30;96.50;;;;;;5051907;28;20108;-78
2020/12/24 11:40:04;;;;;;;7.03;5.22;;;5.20;96.50;;;;;;5035078;28;20402;-79
2020/12/24 11:42:31;;;;;;;8.30;6.10;;;5.30;96.50;;;;;;5033831;28;20029;-78
2020/12/24 11:44:57;;;;;;;8.10;6.63;;;5.30;96.40;;;;;;5017044;28;20036;-78
2020/12/24 11:47:22;;;;;;;10.43;8.15;;;5.30;96.50;;;;;;5034427;28;20037;-77
2020/12/24 11:49:48;;;;;;;12.20;9.43;;;5.20;96.50;;;;;;5039892;28;20036;-78
2020/12/24 11:52:15;;;;;;;11.02;9.45;;;5.30;96.40;;;;;;5026742;28;20370;-78
2020/12/24 11:54:41;;;;;;;12.93;11.20;;;5.30;96.50;;;;;;5049279;28;20094;-78
2020/12/24 11:57:07;;;;;;;13.52;10.93;;;5.30;96.50;;;;;;5031334;28;20033;-78
2020/12/24 11:59:32;;;;;;;13.50;9.88;;;5.40;96.60;;;;;;5056791;28;20081;-78
2020/12/24 12:01:58;;;;;;;13.38;10.38;;;5.40;96.40;;;;;;5027572;28;20039;-78
2020/12/24 12:04:23;;;;;;;13.48;10.35;;;5.40;96.40;;;;;;5056071;28;20104;-79
2020/12/24 12:06:50;;;;;;;15.48;11.05;;;5.40;96.40;;;;;;5025636;28;20131;-78
2020/12/24 12:09:15;;;;;;;10.75;8.77;;;5.50;96.40;;;;;;5036395;28;20024;-78
2020/12/24 12:11:41;;;;;;;11.10;8.05;;;5.40;96.50;;;;;;5015899;28;20035;-78
2020/12/24 12:14:06;;;;;;;11.43;7.90;;;5.50;96.40;;;;;;5053709;28;20020;-77
2020/12/24 12:16:33;;;;;;;8.95;6.80;;;5.50;96.40;;;;;;5048873;28;21228;-78
2020/12/24 12:18:58;;;;;;;8.48;6.78;;;5.50;96.50;;;;;;5013057;28;20040;-78
2020/12/24 12:21:24;;;;;;;12.00;7.85;;;5.50;96.50;;;;;;5028512;28;20044;-78
2020/12/24 12:23:49;;;;;;;8.00;7.07;;;5.60;96.50;;;;;;5009949;28;20024;-78
2020/12/24 12:26:15;;;;;;;9.88;7.40;;;5.60;96.90;;;;;;5035020;28;20138;-79
2020/12/24 12:28:46;;;;;;;8.73;6.65;;;5.50;96.60;;;;;;5013953;28;20484;-79
2020/12/24 12:31:22;;;;;;;8.43;6.00;;;5.60;96.50;;;;;;5049139;28;20047;-78
2020/12/24 12:33:48;;;;;;;7.57;5.03;;;5.70;96.50;;;;;;5009711;28;20131;-79
2020/12/24 12:36:15;;;;;;;7.13;4.95;;;5.70;96.50;;;;;;5037927;28;20111;-79
2020/12/24 12:38:40;;;;;;;6.10;4.82;;;5.80;96.30;;;;;;5020454;28;20495;-79
2020/12/24 12:41:06;;;;;;;11.27;3.55;;;5.80;96.70;;;;;;5022552;28;20048;-79
2020/12/24 12:43:31;;;;;;;6.80;3.95;;;5.70;96.40;;;;;;5027475;28;20028;-80
2020/12/24 12:45:57;;;;;;;5.40;3.80;;;5.80;96.40;;;;;;5029428;28;20459;-79
2020/12/24 12:48:22;;;;;;;4.53;3.35;;;5.90;96.20;;;;;;5038162;28;20024;-79
2020/12/24 12:50:57;;;;;;;5.36;3.64;;;5.80;96.50;;;;;;5001031;28;10000460;-78
2020/12/24 12:53:23;;;;;;;6.60;3.67;;;5.80;96.40;;;;;;5060943;28;20238;-80
2020/12/24 12:55:49;;;;;;;9.93;4.22;;;5.80;96.50;;;;;;5039581;28;20165;-79